sensor_id;sensor_type;location;lat;lon;timestamp;temperature;humidity
3406;DHT22;10008;48.682;9.016;2023-01-06T00:01:13;9.90;99.90
3406;DHT22;10008;48.682;9.016;2023-01-06T00:03:39;9.80;99.90
3406;DHT22;10008;48.682;9.016;2023-01-06T00:06:06;9.80;99.90
3406;DHT22;10008;48.682;9.016;2023-01-06T00:08:34;9.90;99.90
3406;DHT22;10008;48.682;9.016;2023-01-06T00:11:04;9.90;99.90
3406;DHT22;10008;48.682;9.016;2023-01-06T00:13:30;9.90;99.90
3406;DHT22;10008;48.682;9.016;2023-01-06T00:15:56;10.00;99.90
3406;DHT22;10008;48.682;9.016;2023-01-06T00:18:22;10.00;99.90
3406;DHT22;10008;48.682;9.016;2023-01-06T00:20:47;10.00;99.90
3406;DHT22;10008;48.682;9.016;2023-01-06T00:23:13;10.00;99.90
3406;DHT22;10008;48.682;9.016;2023-01-06T00:25:47;10.00;99.90
3406;DHT22;10008;48.682;9.016;2023-01-06T00:28:12;9.90;99.90
3406;DHT22;10008;48.682;9.016;2023-01-06T00:30:38;9.80;99.90
3406;DHT22;10008;48.682;9.016;2023-01-06T00:33:04;9.80;99.90
3406;DHT22;10008;48.682;9.016;2023-01-06T00:35:30;9.80;99.90
3406;DHT22;10008;48.682;9.016;2023-01-06T00:37:56;9.80;99.90
3406;DHT22;10008;48.682;9.016;2023-01-06T00:40:22;9.80;99.90
3406;DHT22;10008;48.682;9.016;2023-01-06T00:42:47;9.70;99.90
3406;DHT22;10008;48.682;9.016;2023-01-06T00:45:13;9.70;99.90
3406;DHT22;10008;48.682;9.016;2023-01-06T00:47:39;9.60;99.90
3406;DHT22;10008;48.682;9.016;2023-01-06T00:50:06;9.60;99.90
3406;DHT22;10008;48.682;9.016;2023-01-06T00:52:31;9.60;99.90
3406;DHT22;10008;48.682;9.016;2023-01-06T00:54:58;9.60;99.90
3406;DHT22;10008;48.682;9.016;2023-01-06T00:57:24;9.50;99.90
3406;DHT22;10008;48.682;9.016;2023-01-06T00:59:50;9.50;99.90
3406;DHT22;10008;48.682;9.016;2023-01-06T01:02:16;9.40;99.90
3406;DHT22;10008;48.682;9.016;2023-01-06T01:04:42;9.40;99.90
3406;DHT22;10008;48.682;9.016;2023-01-06T01:07:08;9.40;99.90
3406;DHT22;10008;48.682;9.016;2023-01-06T01:09:35;9.50;99.90
3406;DHT22;10008;48.682;9.016;2023-01-06T01:12:01;9.50;99.90
3406;DHT22;10008;48.682;9.016;2023-01-06T01:14:42;9.50;99.90
3406;DHT22;10008;48.682;9.016;2023-01-06T01:17:10;9.50;99.90
3406;DHT22;10008;48.682;9.016;2023-01-06T01:19:37;9.50;99.90
3406;DHT22;10008;48.682;9.016;2023-01-06T01:22:04;9.50;99.90
3406;DHT22;10008;48.682;9.016;2023-01-06T01:24:30;9.60;99.90
3406;DHT22;10008;48.682;9.016;2023-01-06T01:26:56;9.60;99.90
3406;DHT22;10008;48.682;9.016;2023-01-06T01:29:23;9.70;99.90
3406;DHT22;10008;48.682;9.016;2023-01-06T01:31:49;9.70;99.90
3406;DHT22;10008;48.682;9.016;2023-01-06T01:34:16;9.70;99.90
3406;DHT22;10008;48.682;9.016;2023-01-06T01:36:44;9.70;99.90
3406;DHT22;10008;48.682;9.016;2023-01-06T01:39:11;9.70;99.90
3406;DHT22;10008;48.682;9.016;2023-01-06T01:41:37;9.70;99.90
3406;DHT22;10008;48.682;9.016;2023-01-06T01:47:09;9.80;99.90
3406;DHT22;10008;48.682;9.016;2023-01-06T01:49:37;9.80;99.90
3406;DHT22;10008;48.682;9.016;2023-01-06T01:52:05;9.80;99.90
3406;DHT22;10008;48.682;9.016;2023-01-06T01:54:33;9.70;99.90
3406;DHT22;10008;48.682;9.016;2023-01-06T01:57:14;9.70;99.90
3406;DHT22;10008;48.682;9.016;2023-01-06T01:59:42;9.70;99.90
3406;DHT22;10008;48.682;9.016;2023-01-06T02:02:08;9.80;99.90
3406;DHT22;10008;48.682;9.016;2023-01-06T02:04:37;9.80;99.90
3406;DHT22;10008;48.682;9.016;2023-01-06T02:07:06;9.90;99.90
3406;DHT22;10008;48.682;9.016;2023-01-06T02:09:40;9.90;99.90
3406;DHT22;10008;48.682;9.016;2023-01-06T02:12:08;9.90;99.90
3406;DHT22;10008;48.682;9.016;2023-01-06T02:14:34;9.90;99.90
3406;DHT22;10008;48.682;9.016;2023-01-06T02:20:03;9.90;99.90
3406;DHT22;10008;48.682;9.016;2023-01-06T02:22:40;10.00;99.90
3406;DHT22;10008;48.682;9.016;2023-01-06T02:31:01;9.90;99.90
3406;DHT22;10008;48.682;9.016;2023-01-06T02:36:38;10.00;99.90
3406;DHT22;10008;48.682;9.016;2023-01-06T02:42:00;10.00;99.90
3406;DHT22;10008;48.682;9.016;2023-01-06T02:47:12;10.00;99.90
3406;DHT22;10008;48.682;9.016;2023-01-06T02:50:10;10.00;99.90
3406;DHT22;10008;48.682;9.016;2023-01-06T02:53:47;9.90;99.90
3406;DHT22;10008;48.682;9.016;2023-01-06T02:55:53;10.00;99.90
3406;DHT22;10008;48.682;9.016;2023-01-06T03:01:01;10.00;99.90
3406;DHT22;10008;48.682;9.016;2023-01-06T03:03:32;10.00;99.90
3406;DHT22;10008;48.682;9.016;2023-01-06T03:06:14;10.00;99.90
3406;DHT22;10008;48.682;9.016;2023-01-06T03:08:43;10.10;99.90
3406;DHT22;10008;48.682;9.016;2023-01-06T03:11:09;10.00;99.90
3406;DHT22;10008;48.682;9.016;2023-01-06T03:13:52;10.00;99.90
3406;DHT22;10008;48.682;9.016;2023-01-06T03:16:21;9.90;99.90
3406;DHT22;10008;48.682;9.016;2023-01-06T03:18:50;9.80;99.90
3406;DHT22;10008;48.682;9.016;2023-01-06T03:21:22;9.70;99.90
3406;DHT22;10008;48.682;9.016;2023-01-06T03:23:50;9.70;99.90
3406;DHT22;10008;48.682;9.016;2023-01-06T03:26:16;9.70;99.90
3406;DHT22;10008;48.682;9.016;2023-01-06T03:28:43;9.60;99.90
3406;DHT22;10008;48.682;9.016;2023-01-06T03:47:44;9.00;99.90
3406;DHT22;10008;48.682;9.016;2023-01-06T03:50:19;9.00;99.90
3406;DHT22;10008;48.682;9.016;2023-01-06T03:53:22;8.90;99.90
3406;DHT22;10008;48.682;9.016;2023-01-06T03:58:58;8.80;99.90
3406;DHT22;10008;48.682;9.016;2023-01-06T04:01:27;8.90;99.90
3406;DHT22;10008;48.682;9.016;2023-01-06T04:03:54;8.90;99.90
3406;DHT22;10008;48.682;9.016;2023-01-06T04:06:22;9.00;99.90
3406;DHT22;10008;48.682;9.016;2023-01-06T04:08:49;9.00;99.90
3406;DHT22;10008;48.682;9.016;2023-01-06T04:11:15;9.00;99.90
3406;DHT22;10008;48.682;9.016;2023-01-06T04:14:00;8.90;99.90
3406;DHT22;10008;48.682;9.016;2023-01-06T04:16:26;8.90;99.90
3406;DHT22;10008;48.682;9.016;2023-01-06T04:18:52;8.90;99.90
3406;DHT22;10008;48.682;9.016;2023-01-06T04:21:18;8.80;99.90
3406;DHT22;10008;48.682;9.016;2023-01-06T04:23:44;8.80;99.90
3406;DHT22;10008;48.682;9.016;2023-01-06T04:26:10;8.70;99.90
3406;DHT22;10008;48.682;9.016;2023-01-06T04:28:43;8.70;99.90
3406;DHT22;10008;48.682;9.016;2023-01-06T04:31:08;8.60;99.90
3406;DHT22;10008;48.682;9.016;2023-01-06T04:33:34;8.60;99.90
3406;DHT22;10008;48.682;9.016;2023-01-06T04:36:03;8.60;99.90
3406;DHT22;10008;48.682;9.016;2023-01-06T04:38:29;8.60;99.90
3406;DHT22;10008;48.682;9.016;2023-01-06T04:40:55;8.60;99.90
3406;DHT22;10008;48.682;9.016;2023-01-06T04:43:21;8.60;99.90
3406;DHT22;10008;48.682;9.016;2023-01-06T04:45:48;8.60;99.90
3406;DHT22;10008;48.682;9.016;2023-01-06T04:48:13;8.60;99.90
3406;DHT22;10008;48.682;9.016;2023-01-06T04:50:39;8.60;99.90
3406;DHT22;10008;48.682;9.016;2023-01-06T04:53:06;8.60;99.90
3406;DHT22;10008;48.682;9.016;2023-01-06T04:55:32;8.70;99.90
3406;DHT22;10008;48.682;9.016;2023-01-06T04:57:58;8.80;99.90
3406;DHT22;10008;48.682;9.016;2023-01-06T05:00:24;8.80;99.90
3406;DHT22;10008;48.682;9.016;2023-01-06T05:02:50;8.80;99.90
3406;DHT22;10008;48.682;9.016;2023-01-06T05:05:16;8.80;99.90
3406;DHT22;10008;48.682;9.016;2023-01-06T05:07:42;8.90;99.90
3406;DHT22;10008;48.682;9.016;2023-01-06T05:10:08;8.90;99.90
3406;DHT22;10008;48.682;9.016;2023-01-06T05:12:34;8.90;99.90
3406;DHT22;10008;48.682;9.016;2023-01-06T05:15:01;8.90;99.90
3406;DHT22;10008;48.682;9.016;2023-01-06T05:17:27;8.80;99.90
3406;DHT22;10008;48.682;9.016;2023-01-06T05:19:53;8.90;99.90
3406;DHT22;10008;48.682;9.016;2023-01-06T05:22:19;8.90;99.90
3406;DHT22;10008;48.682;9.016;2023-01-06T05:24:45;8.90;99.90
3406;DHT22;10008;48.682;9.016;2023-01-06T05:27:11;8.80;99.90
3406;DHT22;10008;48.682;9.016;2023-01-06T05:29:36;8.80;99.90
3406;DHT22;10008;48.682;9.016;2023-01-06T05:32:03;8.70;99.90
3406;DHT22;10008;48.682;9.016;2023-01-06T05:34:28;8.80;99.90
3406;DHT22;10008;48.682;9.016;2023-01-06T05:36:55;8.80;99.90
3406;DHT22;10008;48.682;9.016;2023-01-06T05:39:21;8.90;99.90
3406;DHT22;10008;48.682;9.016;2023-01-06T05:41:47;8.80;99.90
3406;DHT22;10008;48.682;9.016;2023-01-06T05:44:12;8.80;99.90
3406;DHT22;10008;48.682;9.016;2023-01-06T05:46:38;8.80;99.90
3406;DHT22;10008;48.682;9.016;2023-01-06T05:49:04;8.80;99.90
3406;DHT22;10008;48.682;9.016;2023-01-06T05:51:30;8.80;99.90
3406;DHT22;10008;48.682;9.016;2023-01-06T05:53:55;8.70;99.90
3406;DHT22;10008;48.682;9.016;2023-01-06T05:56:22;8.70;99.90
3406;DHT22;10008;48.682;9.016;2023-01-06T05:58:51;8.80;99.90
3406;DHT22;10008;48.682;9.016;2023-01-06T06:01:22;8.70;99.90
3406;DHT22;10008;48.682;9.016;2023-01-06T06:03:50;8.70;99.90
3406;DHT22;10008;48.682;9.016;2023-01-06T06:06:17;8.80;99.90
3406;DHT22;10008;48.682;9.016;2023-01-06T06:08:43;8.80;99.90
3406;DHT22;10008;48.682;9.016;2023-01-06T06:11:12;8.80;99.90
3406;DHT22;10008;48.682;9.016;2023-01-06T06:13:43;8.80;99.90
3406;DHT22;10008;48.682;9.016;2023-01-06T06:16:11;8.70;99.90
3406;DHT22;10008;48.682;9.016;2023-01-06T06:18:38;8.50;99.90
3406;DHT22;10008;48.682;9.016;2023-01-06T06:21:11;8.40;99.90
3406;DHT22;10008;48.682;9.016;2023-01-06T06:23:37;8.40;99.90
3406;DHT22;10008;48.682;9.016;2023-01-06T06:26:03;8.30;99.90
3406;DHT22;10008;48.682;9.016;2023-01-06T06:28:30;8.30;99.90
3406;DHT22;10008;48.682;9.016;2023-01-06T06:31:06;8.40;99.90
3406;DHT22;10008;48.682;9.016;2023-01-06T06:33:32;8.30;99.90
3406;DHT22;10008;48.682;9.016;2023-01-06T06:35:58;8.30;99.90
3406;DHT22;10008;48.682;9.016;2023-01-06T06:38:24;8.40;99.90
3406;DHT22;10008;48.682;9.016;2023-01-06T06:40:50;8.40;99.90
3406;DHT22;10008;48.682;9.016;2023-01-06T06:43:16;8.50;99.90
3406;DHT22;10008;48.682;9.016;2023-01-06T06:45:46;8.50;99.90
3406;DHT22;10008;48.682;9.016;2023-01-06T06:48:12;8.60;99.90
3406;DHT22;10008;48.682;9.016;2023-01-06T06:50:38;8.70;99.90
3406;DHT22;10008;48.682;9.016;2023-01-06T06:53:05;8.80;99.90
3406;DHT22;10008;48.682;9.016;2023-01-06T06:55:31;8.90;99.90
3406;DHT22;10008;48.682;9.016;2023-01-06T06:57:57;8.90;99.90
3406;DHT22;10008;48.682;9.016;2023-01-06T07:00:23;8.90;99.90
3406;DHT22;10008;48.682;9.016;2023-01-06T07:02:50;9.00;99.90
3406;DHT22;10008;48.682;9.016;2023-01-06T07:05:16;9.00;99.90
3406;DHT22;10008;48.682;9.016;2023-01-06T07:07:43;9.00;99.90
3406;DHT22;10008;48.682;9.016;2023-01-06T07:10:13;9.00;99.90
3406;DHT22;10008;48.682;9.016;2023-01-06T07:12:40;9.10;99.90
3406;DHT22;10008;48.682;9.016;2023-01-06T07:15:06;9.20;99.90
3406;DHT22;10008;48.682;9.016;2023-01-06T07:17:32;9.20;99.90
3406;DHT22;10008;48.682;9.016;2023-01-06T07:19:58;9.20;99.90
3406;DHT22;10008;48.682;9.016;2023-01-06T07:22:23;9.20;99.90
3406;DHT22;10008;48.682;9.016;2023-01-06T07:24:49;9.30;99.90
3406;DHT22;10008;48.682;9.016;2023-01-06T07:27:15;9.30;99.90
3406;DHT22;10008;48.682;9.016;2023-01-06T07:29:41;9.30;99.90
3406;DHT22;10008;48.682;9.016;2023-01-06T07:32:06;9.30;99.90
3406;DHT22;10008;48.682;9.016;2023-01-06T07:34:32;9.50;99.90
3406;DHT22;10008;48.682;9.016;2023-01-06T07:36:58;9.40;99.90
3406;DHT22;10008;48.682;9.016;2023-01-06T07:39:23;9.50;99.90
3406;DHT22;10008;48.682;9.016;2023-01-06T07:41:49;9.50;99.90
3406;DHT22;10008;48.682;9.016;2023-01-06T07:44:15;9.60;99.90
3406;DHT22;10008;48.682;9.016;2023-01-06T07:46:40;9.60;99.90
3406;DHT22;10008;48.682;9.016;2023-01-06T07:49:06;9.60;99.90
3406;DHT22;10008;48.682;9.016;2023-01-06T07:51:32;9.60;99.90
3406;DHT22;10008;48.682;9.016;2023-01-06T07:53:57;9.70;99.90
3406;DHT22;10008;48.682;9.016;2023-01-06T07:56:23;9.70;99.90
3406;DHT22;10008;48.682;9.016;2023-01-06T07:58:49;9.80;99.90
3406;DHT22;10008;48.682;9.016;2023-01-06T08:01:15;9.80;99.90
3406;DHT22;10008;48.682;9.016;2023-01-06T08:03:42;9.80;99.90
3406;DHT22;10008;48.682;9.016;2023-01-06T08:06:11;9.80;99.90
3406;DHT22;10008;48.682;9.016;2023-01-06T08:08:38;9.80;99.90
3406;DHT22;10008;48.682;9.016;2023-01-06T08:11:10;9.90;99.90
3406;DHT22;10008;48.682;9.016;2023-01-06T08:13:36;9.80;99.90
3406;DHT22;10008;48.682;9.016;2023-01-06T08:16:06;9.90;99.90
3406;DHT22;10008;48.682;9.016;2023-01-06T08:18:32;9.90;99.90
3406;DHT22;10008;48.682;9.016;2023-01-06T08:21:02;9.90;99.90
3406;DHT22;10008;48.682;9.016;2023-01-06T08:23:29;9.90;99.90
3406;DHT22;10008;48.682;9.016;2023-01-06T08:26:12;9.90;99.90
3406;DHT22;10008;48.682;9.016;2023-01-06T08:28:39;9.90;99.90
3406;DHT22;10008;48.682;9.016;2023-01-06T08:31:13;9.90;99.90
3406;DHT22;10008;48.682;9.016;2023-01-06T08:33:39;9.80;99.90
3406;DHT22;10008;48.682;9.016;2023-01-06T08:36:07;9.80;99.90
3406;DHT22;10008;48.682;9.016;2023-01-06T08:38:34;9.90;99.90
3406;DHT22;10008;48.682;9.016;2023-01-06T08:41:01;9.90;99.90
3406;DHT22;10008;48.682;9.016;2023-01-06T08:43:27;9.90;99.90
3406;DHT22;10008;48.682;9.016;2023-01-06T08:45:58;9.90;99.90
3406;DHT22;10008;48.682;9.016;2023-01-06T08:48:25;9.90;99.90
3406;DHT22;10008;48.682;9.016;2023-01-06T08:50:50;9.90;99.90
3406;DHT22;10008;48.682;9.016;2023-01-06T08:53:16;9.90;99.90
3406;DHT22;10008;48.682;9.016;2023-01-06T08:55:42;9.90;99.90
3406;DHT22;10008;48.682;9.016;2023-01-06T08:58:09;10.00;99.90
3406;DHT22;10008;48.682;9.016;2023-01-06T09:00:39;10.10;99.90
3406;DHT22;10008;48.682;9.016;2023-01-06T09:03:05;10.20;99.90
3406;DHT22;10008;48.682;9.016;2023-01-06T09:05:31;10.30;99.90
3406;DHT22;10008;48.682;9.016;2023-01-06T09:07:56;10.30;99.90
3406;DHT22;10008;48.682;9.016;2023-01-06T09:10:22;10.30;99.90
3406;DHT22;10008;48.682;9.016;2023-01-06T09:12:48;10.20;99.90
3406;DHT22;10008;48.682;9.016;2023-01-06T09:15:14;10.30;99.90
3406;DHT22;10008;48.682;9.016;2023-01-06T09:17:40;10.20;99.90
3406;DHT22;10008;48.682;9.016;2023-01-06T09:20:07;10.20;99.90
3406;DHT22;10008;48.682;9.016;2023-01-06T09:22:33;10.20;99.90
3406;DHT22;10008;48.682;9.016;2023-01-06T09:24:58;10.20;99.90
3406;DHT22;10008;48.682;9.016;2023-01-06T09:27:24;10.20;99.90
3406;DHT22;10008;48.682;9.016;2023-01-06T09:29:50;10.30;99.90
3406;DHT22;10008;48.682;9.016;2023-01-06T09:32:16;10.20;99.90
3406;DHT22;10008;48.682;9.016;2023-01-06T09:34:42;10.20;99.90
3406;DHT22;10008;48.682;9.016;2023-01-06T09:37:07;10.30;99.90
3406;DHT22;10008;48.682;9.016;2023-01-06T09:39:33;10.60;99.90
3406;DHT22;10008;48.682;9.016;2023-01-06T09:44:33;10.90;99.90
3406;DHT22;10008;48.682;9.016;2023-01-06T09:47:02;10.80;99.90
3406;DHT22;10008;48.682;9.016;2023-01-06T09:49:45;10.80;99.90
3406;DHT22;10008;48.682;9.016;2023-01-06T09:52:22;10.70;99.90
3406;DHT22;10008;48.682;9.016;2023-01-06T09:55:03;10.80;99.90
3406;DHT22;10008;48.682;9.016;2023-01-06T09:57:49;10.80;99.90
3406;DHT22;10008;48.682;9.016;2023-01-06T10:00:38;10.70;99.90
3406;DHT22;10008;48.682;9.016;2023-01-06T10:03:18;10.80;99.90
3406;DHT22;10008;48.682;9.016;2023-01-06T10:11:38;11.60;99.90
3406;DHT22;10008;48.682;9.016;2023-01-06T10:14:19;11.80;99.90
3406;DHT22;10008;48.682;9.016;2023-01-06T10:28:10;11.50;99.90
3406;DHT22;10008;48.682;9.016;2023-01-06T10:30:47;11.30;99.90
3406;DHT22;10008;48.682;9.016;2023-01-06T10:33:25;11.30;99.90
3406;DHT22;10008;48.682;9.016;2023-01-06T10:35:54;11.20;99.90
3406;DHT22;10008;48.682;9.016;2023-01-06T10:38:48;11.10;99.90
3406;DHT22;10008;48.682;9.016;2023-01-06T10:41:23;11.20;99.90
3406;DHT22;10008;48.682;9.016;2023-01-06T10:43:51;11.20;99.90
3406;DHT22;10008;48.682;9.016;2023-01-06T10:46:17;11.20;99.90
3406;DHT22;10008;48.682;9.016;2023-01-06T10:48:43;11.10;99.90
3406;DHT22;10008;48.682;9.016;2023-01-06T10:51:35;11.10;99.90
3406;DHT22;10008;48.682;9.016;2023-01-06T10:54:09;11.20;99.90
3406;DHT22;10008;48.682;9.016;2023-01-06T10:56:36;11.40;99.90
3406;DHT22;10008;48.682;9.016;2023-01-06T10:59:10;11.40;99.90
3406;DHT22;10008;48.682;9.016;2023-01-06T11:01:51;11.30;99.90
3406;DHT22;10008;48.682;9.016;2023-01-06T11:04:17;11.20;99.90
3406;DHT22;10008;48.682;9.016;2023-01-06T11:07:00;11.20;99.90
3406;DHT22;10008;48.682;9.016;2023-01-06T11:12:12;11.20;99.90
3406;DHT22;10008;48.682;9.016;2023-01-06T11:14:39;11.10;99.90
3406;DHT22;10008;48.682;9.016;2023-01-06T11:17:14;11.10;99.90
3406;DHT22;10008;48.682;9.016;2023-01-06T11:19:44;11.00;99.90
3406;DHT22;10008;48.682;9.016;2023-01-06T11:22:30;10.80;99.90
3406;DHT22;10008;48.682;9.016;2023-01-06T11:24:57;10.80;99.90
3406;DHT22;10008;48.682;9.016;2023-01-06T11:27:23;10.80;99.90
3406;DHT22;10008;48.682;9.016;2023-01-06T11:29:49;10.90;99.90
3406;DHT22;10008;48.682;9.016;2023-01-06T11:32:26;10.80;99.90
3406;DHT22;10008;48.682;9.016;2023-01-06T11:34:58;10.80;99.90
3406;DHT22;10008;48.682;9.016;2023-01-06T11:37:56;10.90;99.90
3406;DHT22;10008;48.682;9.016;2023-01-06T11:40:32;10.90;99.90
3406;DHT22;10008;48.682;9.016;2023-01-06T11:43:01;10.80;99.90
3406;DHT22;10008;48.682;9.016;2023-01-06T11:48:24;10.80;99.90
3406;DHT22;10008;48.682;9.016;2023-01-06T11:50:52;10.80;99.90
3406;DHT22;10008;48.682;9.016;2023-01-06T11:53:19;11.00;99.90
3406;DHT22;10008;48.682;9.016;2023-01-06T11:55:59;10.90;99.90
3406;DHT22;10008;48.682;9.016;2023-01-06T11:58:50;11.00;99.90
3406;DHT22;10008;48.682;9.016;2023-01-06T12:04:33;11.10;99.90
3406;DHT22;10008;48.682;9.016;2023-01-06T12:07:37;11.00;99.90
3406;DHT22;10008;48.682;9.016;2023-01-06T12:10:17;11.10;99.90
3406;DHT22;10008;48.682;9.016;2023-01-06T12:12:45;11.10;99.90
3406;DHT22;10008;48.682;9.016;2023-01-06T12:15:14;11.10;99.90
3406;DHT22;10008;48.682;9.016;2023-01-06T12:18:00;11.00;99.90
3406;DHT22;10008;48.682;9.016;2023-01-06T12:20:37;11.00;99.90
3406;DHT22;10008;48.682;9.016;2023-01-06T12:23:31;11.50;99.90
3406;DHT22;10008;48.682;9.016;2023-01-06T12:26:01;11.10;99.90
3406;DHT22;10008;48.682;9.016;2023-01-06T12:28:34;11.20;99.90
3406;DHT22;10008;48.682;9.016;2023-01-06T12:31:23;11.20;99.90
3406;DHT22;10008;48.682;9.016;2023-01-06T12:34:06;11.20;99.90
3406;DHT22;10008;48.682;9.016;2023-01-06T12:39:24;11.20;99.90
3406;DHT22;10008;48.682;9.016;2023-01-06T12:41:54;11.30;99.90
3406;DHT22;10008;48.682;9.016;2023-01-06T12:47:00;11.20;99.90
3406;DHT22;10008;48.682;9.016;2023-01-06T12:49:40;11.20;99.90
3406;DHT22;10008;48.682;9.016;2023-01-06T12:52:13;11.10;99.90
3406;DHT22;10008;48.682;9.016;2023-01-06T12:54:39;11.10;99.90
3406;DHT22;10008;48.682;9.016;2023-01-06T13:11:09;11.10;99.90
3406;DHT22;10008;48.682;9.016;2023-01-06T13:17:04;11.00;99.90
3406;DHT22;10008;48.682;9.016;2023-01-06T13:22:07;11.10;99.90
3406;DHT22;10008;48.682;9.016;2023-01-06T13:30:30;11.20;99.90
3406;DHT22;10008;48.682;9.016;2023-01-06T13:33:01;11.10;99.90
3406;DHT22;10008;48.682;9.016;2023-01-06T13:41:36;11.20;99.90
3406;DHT22;10008;48.682;9.016;2023-01-06T13:44:17;11.30;99.90
3406;DHT22;10008;48.682;9.016;2023-01-06T13:46:46;11.20;99.90
3406;DHT22;10008;48.682;9.016;2023-01-06T13:49:14;11.20;99.90
3406;DHT22;10008;48.682;9.016;2023-01-06T13:51:41;11.20;99.90
3406;DHT22;10008;48.682;9.016;2023-01-06T13:55:20;11.20;99.90
3406;DHT22;10008;48.682;9.016;2023-01-06T14:07:58;11.10;99.90
3406;DHT22;10008;48.682;9.016;2023-01-06T14:10:37;11.10;99.90
3406;DHT22;10008;48.682;9.016;2023-01-06T14:13:24;11.10;99.90
3406;DHT22;10008;48.682;9.016;2023-01-06T14:15:55;11.00;99.90
3406;DHT22;10008;48.682;9.016;2023-01-06T14:18:43;11.00;99.90
3406;DHT22;10008;48.682;9.016;2023-01-06T14:23:49;10.90;99.90
3406;DHT22;10008;48.682;9.016;2023-01-06T14:26:15;10.80;99.90
3406;DHT22;10008;48.682;9.016;2023-01-06T14:28:41;10.80;99.90
3406;DHT22;10008;48.682;9.016;2023-01-06T14:33:56;10.80;99.90
3406;DHT22;10008;48.682;9.016;2023-01-06T14:36:24;10.80;99.90
3406;DHT22;10008;48.682;9.016;2023-01-06T14:38:57;10.80;99.90
3406;DHT22;10008;48.682;9.016;2023-01-06T14:44:15;10.70;99.90
3406;DHT22;10008;48.682;9.016;2023-01-06T14:46:55;10.70;99.90
3406;DHT22;10008;48.682;9.016;2023-01-06T14:52:19;10.70;99.90
3406;DHT22;10008;48.682;9.016;2023-01-06T14:54:48;10.60;99.90
3406;DHT22;10008;48.682;9.016;2023-01-06T14:57:33;10.70;99.90
3406;DHT22;10008;48.682;9.016;2023-01-06T15:00:14;10.70;99.90
3406;DHT22;10008;48.682;9.016;2023-01-06T15:05:49;10.70;99.90
3406;DHT22;10008;48.682;9.016;2023-01-06T15:08:17;10.70;99.90
3406;DHT22;10008;48.682;9.016;2023-01-06T15:10:48;10.60;99.90
3406;DHT22;10008;48.682;9.016;2023-01-06T15:13:21;10.50;99.90
3406;DHT22;10008;48.682;9.016;2023-01-06T15:16:02;10.50;99.90
3406;DHT22;10008;48.682;9.016;2023-01-06T15:18:30;10.40;99.90
3406;DHT22;10008;48.682;9.016;2023-01-06T15:20:56;10.50;99.90
3406;DHT22;10008;48.682;9.016;2023-01-06T15:23:23;10.50;99.90
3406;DHT22;10008;48.682;9.016;2023-01-06T15:25:50;10.50;99.90
3406;DHT22;10008;48.682;9.016;2023-01-06T15:28:34;10.60;99.90
3406;DHT22;10008;48.682;9.016;2023-01-06T15:31:01;9.90;99.90
3406;DHT22;10008;48.682;9.016;2023-01-06T15:33:33;10.60;99.90
3406;DHT22;10008;48.682;9.016;2023-01-06T15:36:01;10.60;99.90
3406;DHT22;10008;48.682;9.016;2023-01-06T15:38:34;10.60;99.90
3406;DHT22;10008;48.682;9.016;2023-01-06T15:41:04;10.50;99.90
3406;DHT22;10008;48.682;9.016;2023-01-06T15:43:40;10.50;99.90
3406;DHT22;10008;48.682;9.016;2023-01-06T15:46:09;10.60;99.90
3406;DHT22;10008;48.682;9.016;2023-01-06T15:48:38;10.60;99.90
3406;DHT22;10008;48.682;9.016;2023-01-06T15:51:14;10.60;99.90
3406;DHT22;10008;48.682;9.016;2023-01-06T15:53:40;10.60;99.90
3406;DHT22;10008;48.682;9.016;2023-01-06T15:56:07;10.60;99.90
3406;DHT22;10008;48.682;9.016;2023-01-06T15:58:40;10.70;99.90
3406;DHT22;10008;48.682;9.016;2023-01-06T16:01:11;10.50;99.90
3406;DHT22;10008;48.682;9.016;2023-01-06T16:03:48;10.50;99.90
3406;DHT22;10008;48.682;9.016;2023-01-06T16:06:28;10.60;99.90
3406;DHT22;10008;48.682;9.016;2023-01-06T16:12:15;10.40;99.90
3406;DHT22;10008;48.682;9.016;2023-01-06T16:14:41;10.40;99.90
3406;DHT22;10008;48.682;9.016;2023-01-06T16:19:50;10.40;99.90
3406;DHT22;10008;48.682;9.016;2023-01-06T16:25:07;10.30;99.90
3406;DHT22;10008;48.682;9.016;2023-01-06T16:27:47;10.30;99.90
3406;DHT22;10008;48.682;9.016;2023-01-06T16:32:41;10.30;99.90
3406;DHT22;10008;48.682;9.016;2023-01-06T16:35:15;10.30;99.90
3406;DHT22;10008;48.682;9.016;2023-01-06T16:37:42;10.30;99.90
3406;DHT22;10008;48.682;9.016;2023-01-06T16:40:08;10.30;99.90
3406;DHT22;10008;48.682;9.016;2023-01-06T16:42:36;10.30;99.90
3406;DHT22;10008;48.682;9.016;2023-01-06T16:45:24;10.30;99.90
3406;DHT22;10008;48.682;9.016;2023-01-06T16:47:51;10.30;99.90
3406;DHT22;10008;48.682;9.016;2023-01-06T16:50:38;10.30;99.90
3406;DHT22;10008;48.682;9.016;2023-01-06T16:53:17;10.30;99.90
3406;DHT22;10008;48.682;9.016;2023-01-06T16:55:52;10.30;99.90
3406;DHT22;10008;48.682;9.016;2023-01-06T16:58:27;10.30;99.90
3406;DHT22;10008;48.682;9.016;2023-01-06T17:00:54;10.30;99.90
3406;DHT22;10008;48.682;9.016;2023-01-06T17:03:27;10.30;99.90
3406;DHT22;10008;48.682;9.016;2023-01-06T17:05:54;10.30;99.90
3406;DHT22;10008;48.682;9.016;2023-01-06T17:08:25;10.40;99.90
3406;DHT22;10008;48.682;9.016;2023-01-06T17:10:52;10.50;99.90
3406;DHT22;10008;48.682;9.016;2023-01-06T17:13:17;10.50;99.90
3406;DHT22;10008;48.682;9.016;2023-01-06T17:18:49;10.50;99.90
3406;DHT22;10008;48.682;9.016;2023-01-06T17:21:18;10.50;99.90
3406;DHT22;10008;48.682;9.016;2023-01-06T17:24:10;10.50;99.90
3406;DHT22;10008;48.682;9.016;2023-01-06T17:26:36;10.50;99.90
3406;DHT22;10008;48.682;9.016;2023-01-06T17:29:13;10.60;99.90
3406;DHT22;10008;48.682;9.016;2023-01-06T17:31:41;10.60;99.90
3406;DHT22;10008;48.682;9.016;2023-01-06T17:34:17;10.60;99.90
3406;DHT22;10008;48.682;9.016;2023-01-06T17:36:46;10.50;99.90
3406;DHT22;10008;48.682;9.016;2023-01-06T17:39:25;10.40;99.90
3406;DHT22;10008;48.682;9.016;2023-01-06T17:42:00;10.30;99.90
3406;DHT22;10008;48.682;9.016;2023-01-06T17:44:34;10.30;99.90
3406;DHT22;10008;48.682;9.016;2023-01-06T17:47:01;10.30;99.90
3406;DHT22;10008;48.682;9.016;2023-01-06T17:49:33;10.20;99.90
3406;DHT22;10008;48.682;9.016;2023-01-06T17:52:09;10.10;99.90
3406;DHT22;10008;48.682;9.016;2023-01-06T17:54:37;10.10;99.90
3406;DHT22;10008;48.682;9.016;2023-01-06T17:57:21;10.10;99.90
3406;DHT22;10008;48.682;9.016;2023-01-06T17:59:50;10.00;99.90
3406;DHT22;10008;48.682;9.016;2023-01-06T18:04:44;9.90;99.90
3406;DHT22;10008;48.682;9.016;2023-01-06T18:07:12;10.00;99.90
3406;DHT22;10008;48.682;9.016;2023-01-06T18:09:38;9.80;99.90
3406;DHT22;10008;48.682;9.016;2023-01-06T18:12:11;9.80;99.90
3406;DHT22;10008;48.682;9.016;2023-01-06T18:14:37;9.80;99.90
3406;DHT22;10008;48.682;9.016;2023-01-06T18:17:22;9.80;99.90
3406;DHT22;10008;48.682;9.016;2023-01-06T18:19:49;9.80;99.90
3406;DHT22;10008;48.682;9.016;2023-01-06T18:22:22;9.80;99.90
3406;DHT22;10008;48.682;9.016;2023-01-06T18:24:55;9.70;99.90
3406;DHT22;10008;48.682;9.016;2023-01-06T18:27:24;9.70;99.90
3406;DHT22;10008;48.682;9.016;2023-01-06T18:29:55;9.70;99.90
3406;DHT22;10008;48.682;9.016;2023-01-06T18:32:29;9.70;99.90
3406;DHT22;10008;48.682;9.016;2023-01-06T18:34:58;9.70;99.90
3406;DHT22;10008;48.682;9.016;2023-01-06T18:37:29;9.70;99.90
3406;DHT22;10008;48.682;9.016;2023-01-06T18:40:01;9.80;99.90
3406;DHT22;10008;48.682;9.016;2023-01-06T18:42:30;9.80;99.90
3406;DHT22;10008;48.682;9.016;2023-01-06T18:45:24;9.80;99.90